Time;durP1;ratioP1;P1;durP2;ratioP2;P2;SDS_P1;SDS_P2;PMS_P1;PMS_P2;Temp;Humidity;BMP_temperature;BMP_pressure;BME280_temperature;BME280_humidity;BME280_pressure;Samples;Min_cycle;Max_cycle;Signal;HPM_P1;HPM_P2
2021/08/18 00:01:17;;;;;;;12.23;9.05;;;15.80;99.00;;;;;;5053586;28;20051;-70
2021/08/18 00:03:42;;;;;;;11.95;8.68;;;15.90;99.00;;;;;;5052808;28;20378;-70
2021/08/18 00:06:09;;;;;;;10.52;8.20;;;15.90;99.00;;;;;;5052929;28;20024;-70
2021/08/18 00:08:35;;;;;;;10.15;8.05;;;16.00;99.00;;;;;;5052977;28;20525;-70
2021/08/18 00:11:01;;;;;;;12.07;7.93;;;16.00;99.00;;;;;;5051877;28;20036;-71
2021/08/18 00:13:26;;;;;;;10.85;8.13;;;16.00;98.90;;;;;;5053417;28;20029;-71
2021/08/18 00:15:52;;;;;;;11.18;8.10;;;16.10;98.90;;;;;;5053340;28;20033;-71
2021/08/18 00:18:18;;;;;;;10.80;8.10;;;16.10;98.90;;;;;;5052827;28;20025;-71
2021/08/18 00:20:44;;;;;;;10.07;7.35;;;16.10;98.90;;;;;;5052807;28;20044;-71
2021/08/18 00:23:10;;;;;;;10.07;7.60;;;16.10;99.00;;;;;;5052599;28;20445;-71
2021/08/18 00:25:35;;;;;;;9.07;7.55;;;16.10;99.00;;;;;;5052746;28;20094;-70
2021/08/18 00:28:02;;;;;;;11.15;8.15;;;16.10;98.90;;;;;;5053235;28;20049;-71
2021/08/18 00:30:27;;;;;;;8.75;7.22;;;16.10;99.20;;;;;;5052703;28;20029;-70
2021/08/18 00:32:54;;;;;;;8.48;7.03;;;16.00;99.20;;;;;;5052546;28;20037;-70
2021/08/18 00:35:20;;;;;;;9.07;7.00;;;16.00;99.10;;;;;;5052608;28;20049;-70
2021/08/18 00:37:46;;;;;;;9.27;7.07;;;16.10;99.10;;;;;;5052599;28;20059;-70
2021/08/18 00:40:13;;;;;;;8.48;6.57;;;16.00;99.20;;;;;;5052786;28;20059;-70
2021/08/18 00:42:40;;;;;;;11.00;6.40;;;16.10;99.20;;;;;;5052475;28;20470;-71
2021/08/18 00:45:07;;;;;;;9.93;7.23;;;16.10;99.30;;;;;;5052380;28;20462;-70
2021/08/18 00:47:46;;;;;;;8.73;6.72;;;16.10;99.30;;;;;;5052489;28;20495;-70
2021/08/18 00:50:14;;;;;;;8.55;6.22;;;16.10;99.40;;;;;;5052210;28;20129;-70
2021/08/18 00:52:40;;;;;;;;;;;16.10;99.40;;;;;;5051709;28;20032;-70
2021/08/18 00:55:11;;;;;;;8.77;6.60;;;16.10;99.40;;;;;;5052608;28;19896;-70
2021/08/18 00:57:37;;;;;;;10.65;6.80;;;16.10;99.40;;;;;;5052079;28;20029;-70
2021/08/18 01:00:05;;;;;;;8.68;6.63;;;16.10;99.50;;;;;;5052016;28;20363;-71
2021/08/18 01:02:31;;;;;;;;;;;16.20;99.50;;;;;;5052426;28;20072;-70
2021/08/18 01:04:56;;;;;;;11.27;6.50;;;16.10;99.60;;;;;;5051889;28;20346;-70
2021/08/18 01:07:22;;;;;;;9.10;6.50;;;16.10;99.60;;;;;;5052260;28;20048;-70
2021/08/18 01:09:48;;;;;;;10.60;6.75;;;16.10;99.60;;;;;;5051585;28;20440;-70
2021/08/18 01:12:14;;;;;;;8.07;6.53;;;16.10;99.60;;;;;;5051649;28;20040;-70
2021/08/18 01:14:40;;;;;;;9.20;6.80;;;16.20;99.60;;;;;;5051701;28;20462;-70
2021/08/18 01:17:06;;;;;;;10.70;6.80;;;16.10;99.60;;;;;;5051724;28;20093;-70
2021/08/18 01:19:31;;;;;;;8.32;6.28;;;16.10;99.70;;;;;;5051607;28;20112;-70
2021/08/18 01:21:57;;;;;;;8.75;6.53;;;16.10;99.70;;;;;;5052064;28;20021;-70
2021/08/18 01:24:23;;;;;;;9.82;6.22;;;16.20;99.80;;;;;;5051504;28;20059;-70
2021/08/18 01:26:48;;;;;;;11.43;7.15;;;16.10;99.70;;;;;;5051654;28;20052;-70
2021/08/18 01:29:14;;;;;;;8.75;7.10;;;16.20;99.70;;;;;;5051441;28;20033;-71
2021/08/18 01:31:41;;;;;;;10.25;7.72;;;16.20;99.70;;;;;;5051514;28;20053;-71
2021/08/18 01:34:07;;;;;;;10.43;7.65;;;16.20;99.70;;;;;;5051701;28;20108;-71
2021/08/18 01:36:33;;;;;;;11.77;7.70;;;16.20;99.70;;;;;;5036512;28;20116;-71
2021/08/18 01:39:08;;;;;;;10.63;7.78;;;16.20;99.70;;;;;;5031376;28;20038;-71
2021/08/18 01:41:34;;;;;;;12.00;7.97;;;16.00;99.90;;;;;;5031294;28;20045;-71
2021/08/18 01:44:00;;;;;;;13.48;8.57;;;16.10;99.90;;;;;;5031118;28;20124;-71
2021/08/18 01:46:26;;;;;;;10.85;7.07;;;16.10;99.90;;;;;;5031638;28;20105;-70
2021/08/18 01:48:52;;;;;;;13.48;8.38;;;16.10;99.90;;;;;;5031144;28;20372;-70
2021/08/18 01:51:18;;;;;;;11.57;8.63;;;16.10;99.90;;;;;;5030933;28;20075;-70
2021/08/18 01:53:46;;;;;;;10.93;8.25;;;16.00;99.90;;;;;;5031288;28;20467;-70
2021/08/18 01:56:13;;;;;;;13.20;8.63;;;16.10;99.90;;;;;;5029954;28;20029;-70
2021/08/18 01:58:39;;;;;;;11.43;8.52;;;16.10;99.90;;;;;;5030538;28;20524;-70
2021/08/18 02:01:10;;;;;;;12.40;8.95;;;16.10;99.90;;;;;;5031467;28;20071;-71
2021/08/18 02:03:36;;;;;;;14.07;9.48;;;16.10;99.90;;;;;;5030834;28;20116;-71
2021/08/18 02:06:02;;;;;;;13.18;10.07;;;16.00;99.90;;;;;;5030848;28;20063;-70
2021/08/18 02:08:28;;;;;;;12.93;9.27;;;16.00;99.90;;;;;;5030899;28;20029;-71
2021/08/18 02:10:54;;;;;;;13.23;9.48;;;16.00;99.90;;;;;;5029815;28;20384;-71
2021/08/18 02:13:20;;;;;;;13.10;9.20;;;16.00;99.90;;;;;;5031277;28;20025;-70
2021/08/18 02:15:46;;;;;;;12.57;9.40;;;16.10;99.90;;;;;;5030971;28;20033;-70
2021/08/18 02:18:15;;;;;;;12.20;8.60;;;16.10;99.90;;;;;;5030874;28;20038;-70
2021/08/18 02:20:42;;;;;;;11.18;8.52;;;16.10;99.90;;;;;;5030760;28;20044;-70
2021/08/18 02:23:08;;;;;;;12.35;9.00;;;16.00;99.90;;;;;;5030498;28;20459;-71
2021/08/18 02:25:35;;;;;;;12.73;9.00;;;16.00;99.90;;;;;;5030466;28;20029;-71
2021/08/18 02:28:01;;;;;;;12.68;9.02;;;16.00;99.90;;;;;;5031451;28;20022;-71
2021/08/18 02:30:28;;;;;;;10.88;7.75;;;16.00;99.90;;;;;;5031129;28;20025;-70
2021/08/18 02:32:54;;;;;;;15.60;9.43;;;16.00;99.90;;;;;;5030876;28;20029;-70
2021/08/18 02:35:21;;;;;;;11.30;7.88;;;16.10;99.90;;;;;;5031021;28;20463;-71
2021/08/18 02:37:47;;;;;;;11.93;7.85;;;16.00;99.90;;;;;;5030601;28;20021;-71
2021/08/18 02:40:18;;;;;;;13.20;8.07;;;16.10;99.90;;;;;;5031008;28;20474;-71
2021/08/18 02:42:45;;;;;;;9.43;7.07;;;16.10;99.90;;;;;;5030749;28;20026;-71
2021/08/18 02:45:11;;;;;;;11.95;8.15;;;16.10;99.90;;;;;;5030503;28;20065;-71
2021/08/18 02:47:37;;;;;;;9.85;7.10;;;16.00;99.90;;;;;;5030566;28;20065;-70
2021/08/18 02:50:08;;;;;;;9.35;6.25;;;16.10;99.90;;;;;;5029301;28;20044;-68
2021/08/18 02:52:33;;;;;;;10.38;5.85;;;16.10;99.90;;;;;;5030587;28;20021;-69
2021/08/18 02:54:59;;;;;;;9.18;6.55;;;16.00;99.90;;;;;;5030869;28;20140;-69
2021/08/18 02:57:25;;;;;;;7.80;5.65;;;16.00;99.90;;;;;;5030374;28;20044;-70
2021/08/18 02:59:52;;;;;;;11.02;6.63;;;16.10;99.90;;;;;;5030322;28;20247;-69
2021/08/18 03:02:19;;;;;;;8.85;5.85;;;16.20;99.90;;;;;;5030470;28;20033;-69
2021/08/18 03:04:45;;;;;;;8.45;6.07;;;16.20;99.90;;;;;;5030129;28;20025;-70
2021/08/18 03:07:10;;;;;;;11.68;6.78;;;16.10;99.90;;;;;;5030634;28;20087;-69
2021/08/18 03:09:36;;;;;;;7.72;5.65;;;16.10;99.90;;;;;;5030432;28;20479;-69
2021/08/18 03:12:02;;;;;;;9.07;6.25;;;16.10;99.90;;;;;;5033954;28;20088;-70
2021/08/18 03:14:31;;;;;;;9.13;6.18;;;16.20;99.90;;;;;;5034163;28;20034;-69
2021/08/18 03:16:56;;;;;;;9.75;6.97;;;16.20;99.90;;;;;;5034263;28;20053;-69
2021/08/18 03:19:22;;;;;;;10.80;6.75;;;16.20;99.90;;;;;;5034368;28;20053;-69
2021/08/18 03:21:48;;;;;;;8.65;6.70;;;16.20;99.90;;;;;;5033705;28;20430;-69
2021/08/18 03:24:13;;;;;;;10.07;6.93;;;16.20;99.90;;;;;;5033618;28;20053;-70
2021/08/18 03:26:39;;;;;;;9.45;6.90;;;16.20;99.90;;;;;;5034033;28;20072;-70
2021/08/18 03:29:05;;;;;;;10.60;7.63;;;16.20;99.90;;;;;;5033857;28;20124;-70
2021/08/18 03:31:31;;;;;;;11.50;7.47;;;16.20;99.90;;;;;;5033457;28;20109;-69
2021/08/18 03:33:57;;;;;;;10.13;7.32;;;16.20;99.90;;;;;;5033968;28;20033;-69
2021/08/18 03:36:22;;;;;;;10.45;7.40;;;16.20;99.90;;;;;;5033804;28;20351;-69
2021/08/18 03:38:48;;;;;;;9.95;7.38;;;16.30;99.90;;;;;;5033574;28;20099;-70
2021/08/18 03:41:14;;;;;;;11.23;7.20;;;16.30;99.90;;;;;;5033528;28;20049;-70
2021/08/18 03:43:39;;;;;;;11.38;7.10;;;16.20;99.90;;;;;;5033092;28;20036;-69
2021/08/18 03:46:05;;;;;;;11.07;7.30;;;16.20;99.90;;;;;;5034183;28;20406;-70
2021/08/18 03:48:31;;;;;;;12.48;8.13;;;16.30;99.90;;;;;;5033491;28;20041;-70
2021/08/18 03:50:56;;;;;;;11.18;7.65;;;16.30;99.90;;;;;;5033196;28;20552;-71
2021/08/18 03:53:22;;;;;;;10.82;7.00;;;16.30;99.90;;;;;;5033481;28;20060;-70
2021/08/18 03:55:48;;;;;;;11.23;7.65;;;16.30;99.90;;;;;;5033267;28;20266;-70
2021/08/18 03:58:13;;;;;;;11.13;7.88;;;16.20;99.90;;;;;;5032595;28;20040;-70
2021/08/18 04:00:39;;;;;;;11.95;8.27;;;16.30;99.90;;;;;;5033123;28;20118;-70
2021/08/18 04:03:05;;;;;;;10.55;7.78;;;16.10;99.90;;;;;;5033199;28;20060;-70
2021/08/18 04:05:30;;;;;;;12.38;7.97;;;16.10;99.90;;;;;;5033172;28;20030;-70
2021/08/18 04:07:56;;;;;;;11.35;7.22;;;16.20;99.90;;;;;;5033043;28;20025;-70
2021/08/18 04:10:22;;;;;;;14.27;7.90;;;16.30;99.90;;;;;;5033364;28;20102;-71
2021/08/18 04:12:56;;;;;;;12.85;8.98;;;16.30;99.90;;;;;;5033228;28;20022;-70
2021/08/18 04:15:24;;;;;;;10.82;8.45;;;16.20;99.90;;;;;;5032703;28;20036;-70
2021/08/18 04:17:50;;;;;;;12.90;8.00;;;16.20;99.90;;;;;;5032806;28;20040;-70
2021/08/18 04:20:16;;;;;;;13.15;8.75;;;16.10;99.90;;;;;;5032914;28;20026;-70
2021/08/18 04:22:42;;;;;;;12.90;8.90;;;16.20;99.90;;;;;;5031984;28;20352;-70
2021/08/18 04:25:12;;;;;;;13.00;8.77;;;16.20;99.90;;;;;;5033198;28;20021;-70
2021/08/18 04:27:38;;;;;;;14.18;9.48;;;16.20;99.90;;;;;;5032860;28;20467;-71
2021/08/18 04:30:06;;;;;;;14.85;9.00;;;16.10;99.90;;;;;;5033027;28;20511;-70
2021/08/18 04:32:31;;;;;;;13.40;8.87;;;16.10;99.90;;;;;;5032640;28;20029;-71
2021/08/18 04:34:57;;;;;;;11.80;8.15;;;16.20;99.90;;;;;;5031440;28;20324;-70
2021/08/18 04:37:23;;;;;;;12.05;8.60;;;16.10;99.90;;;;;;5032821;28;20079;-70
2021/08/18 04:39:49;;;;;;;12.85;8.80;;;16.10;99.90;;;;;;5032268;28;20406;-70
2021/08/18 04:42:14;;;;;;;16.23;10.60;;;16.10;99.90;;;;;;5032854;28;20026;-70
2021/08/18 04:44:40;;;;;;;13.10;8.60;;;16.20;99.90;;;;;;5031006;28;20099;-70
2021/08/18 04:47:05;;;;;;;12.40;8.43;;;16.20;99.90;;;;;;5032480;28;20041;-70
2021/08/18 04:49:31;;;;;;;13.65;9.48;;;16.20;99.90;;;;;;5032239;28;20418;-70
2021/08/18 04:51:57;;;;;;;15.20;9.88;;;16.20;99.90;;;;;;5032726;28;20506;-70
2021/08/18 04:54:22;;;;;;;12.82;9.23;;;16.20;99.90;;;;;;5032209;28;20030;-71
2021/08/18 04:56:48;;;;;;;16.75;10.60;;;16.20;99.90;;;;;;5031580;28;20475;-70
2021/08/18 04:59:13;;;;;;;12.23;9.20;;;16.10;99.90;;;;;;5032216;28;20092;-70
2021/08/18 05:01:39;;;;;;;13.57;10.05;;;16.20;99.90;;;;;;5031792;28;20037;-70
2021/08/18 05:04:07;;;;;;;14.82;10.13;;;16.20;99.90;;;;;;5032526;28;20104;-70
2021/08/18 05:06:33;;;;;;;15.20;10.60;;;16.20;99.90;;;;;;5032036;28;20073;-70
2021/08/18 05:08:59;;;;;;;13.63;9.60;;;16.20;99.90;;;;;;5031749;28;20179;-70
2021/08/18 05:11:25;;;;;;;15.55;11.02;;;16.20;99.90;;;;;;5031950;28;20542;-71
2021/08/18 05:13:50;;;;;;;15.48;9.85;;;16.20;99.90;;;;;;5031556;28;20030;-71
2021/08/18 05:16:16;;;;;;;15.70;9.88;;;16.30;99.90;;;;;;5032317;28;20538;-71
2021/08/18 05:18:41;;;;;;;15.25;10.57;;;16.30;99.90;;;;;;5032053;28;20040;-71
2021/08/18 05:21:07;;;;;;;14.27;10.13;;;16.30;99.90;;;;;;5032106;28;20033;-70
2021/08/18 05:23:33;;;;;;;15.65;9.68;;;16.30;99.90;;;;;;5031477;28;20103;-72
2021/08/18 05:25:58;;;;;;;14.27;9.88;;;16.30;99.90;;;;;;5031372;28;20037;-71
2021/08/18 05:28:24;;;;;;;14.40;10.00;;;16.30;99.90;;;;;;5031962;28;20097;-71
2021/08/18 05:30:50;;;;;;;15.55;10.25;;;16.30;99.90;;;;;;5031504;28;20166;-72
2021/08/18 05:33:15;;;;;;;19.83;9.77;;;16.40;99.90;;;;;;5030562;28;20123;-71
2021/08/18 05:35:41;;;;;;;17.70;11.48;;;16.40;99.90;;;;;;5031244;28;20183;-70
2021/08/18 05:38:06;;;;;;;15.27;10.13;;;16.40;99.90;;;;;;5031002;28;20061;-72
2021/08/18 05:40:32;;;;;;;14.02;9.05;;;16.40;99.90;;;;;;5031048;28;20036;-73
2021/08/18 05:42:57;;;;;;;15.95;10.15;;;16.40;99.90;;;;;;5031631;28;20026;-71
2021/08/18 05:45:23;;;;;;;17.33;9.75;;;16.40;99.90;;;;;;5031084;28;20052;-71
2021/08/18 05:47:49;;;;;;;12.70;8.82;;;16.30;99.90;;;;;;5031258;28;20059;-72
2021/08/18 05:50:14;;;;;;;16.77;9.65;;;16.20;99.90;;;;;;5031116;28;20043;-71
2021/08/18 05:52:40;;;;;;;16.60;9.63;;;16.20;99.90;;;;;;5030965;28;20096;-71
2021/08/18 05:55:07;;;;;;;15.95;9.30;;;16.30;99.90;;;;;;5031193;28;20100;-69
2021/08/18 05:57:34;;;;;;;13.40;9.02;;;16.40;99.90;;;;;;5030879;28;20030;-69
2021/08/18 06:00:00;;;;;;;16.00;8.93;;;16.40;99.90;;;;;;5030892;28;20509;-69
2021/08/18 06:02:25;;;;;;;14.45;9.15;;;16.20;99.90;;;;;;5030819;28;20037;-70
2021/08/18 06:04:51;;;;;;;12.60;8.38;;;16.40;99.90;;;;;;5030080;28;20044;-69
2021/08/18 06:07:17;;;;;;;10.27;7.57;;;16.40;99.90;;;;;;5031439;28;20032;-68
2021/08/18 06:09:42;;;;;;;13.35;7.22;;;16.30;99.90;;;;;;5030606;28;20316;-68
2021/08/18 06:12:08;;;;;;;11.32;7.45;;;16.40;99.90;;;;;;5030631;28;20029;-68
2021/08/18 06:14:34;;;;;;;10.75;6.53;;;16.40;99.90;;;;;;5030571;28;20187;-67
2021/08/18 06:17:00;;;;;;;9.32;6.65;;;16.40;99.70;;;;;;5030569;28;20502;-67
2021/08/18 06:19:26;;;;;;;10.65;6.28;;;16.50;99.60;;;;;;5030980;28;20022;-67
2021/08/18 06:21:52;;;;;;;8.48;6.00;;;16.60;99.50;;;;;;5031097;28;20064;-69
2021/08/18 06:26:46;;;;;;;9.07;5.28;;;16.60;99.20;;;;;;5030634;28;20030;-68
2021/08/18 06:29:11;;;;;;;7.55;4.88;;;16.60;99.10;;;;;;5030788;28;20469;-68
2021/08/18 06:31:37;;;;;;;9.90;5.57;;;16.70;99.10;;;;;;5030469;28;20026;-68
2021/08/18 06:34:03;;;;;;;8.93;6.05;;;16.80;99.20;;;;;;5030774;28;20025;-68
2021/08/18 06:36:28;;;;;;;10.63;5.80;;;16.80;99.20;;;;;;5030535;28;20037;-68
2021/08/18 06:38:54;;;;;;;10.52;5.70;;;16.80;99.20;;;;;;5030286;28;20037;-67
2021/08/18 06:41:19;;;;;;;7.95;5.53;;;16.80;99.10;;;;;;5030453;28;20041;-68
2021/08/18 06:43:45;;;;;;;8.82;5.45;;;16.90;99.10;;;;;;5030462;28;20017;-68
2021/08/18 06:46:10;;;;;;;11.35;5.60;;;17.00;99.10;;;;;;5034861;28;20026;-68
2021/08/18 06:48:36;;;;;;;11.00;5.78;;;17.10;99.10;;;;;;5034405;28;20053;-68
2021/08/18 06:51:02;;;;;;;9.40;5.20;;;17.10;98.80;;;;;;5034154;28;20034;-68
2021/08/18 06:53:27;;;;;;;10.75;5.47;;;17.20;98.80;;;;;;5034343;28;20451;-68
2021/08/18 06:55:53;;;;;;;8.88;4.85;;;17.20;98.80;;;;;;5034437;28;20091;-68
2021/08/18 06:58:18;;;;;;;8.55;4.90;;;17.20;98.80;;;;;;5034494;28;20430;-68
2021/08/18 07:00:44;;;;;;;9.75;4.93;;;17.20;98.70;;;;;;5034528;28;20037;-68
2021/08/18 07:03:09;;;;;;;8.30;5.07;;;17.20;98.60;;;;;;5032852;28;20051;-68
2021/08/18 07:05:36;;;;;;;12.63;4.53;;;17.30;98.70;;;;;;5033968;28;20315;-68
2021/08/18 07:08:01;;;;;;;9.40;4.60;;;17.40;98.30;;;;;;5034015;28;20033;-68
2021/08/18 07:10:27;;;;;;;7.47;4.25;;;17.50;98.40;;;;;;5034611;28;20044;-69
2021/08/18 07:12:53;;;;;;;5.97;3.40;;;17.60;97.90;;;;;;5032908;28;20025;-69
2021/08/18 07:15:19;;;;;;;9.57;3.70;;;17.70;97.90;;;;;;5034018;28;20117;-69
2021/08/18 07:17:46;;;;;;;9.73;4.32;;;17.70;97.50;;;;;;5033784;28;20041;-68
2021/08/18 07:20:12;;;;;;;7.25;3.60;;;17.80;97.40;;;;;;5033679;28;20571;-68
2021/08/18 07:22:37;;;;;;;5.43;3.30;;;17.90;97.50;;;;;;5033586;28;20103;-69
2021/08/18 07:25:04;;;;;;;5.93;2.78;;;18.00;97.30;;;;;;5032979;28;20037;-68
2021/08/18 07:27:30;;;;;;;5.65;2.80;;;18.20;97.20;;;;;;5033895;28;20041;-68
2021/08/18 07:29:57;;;;;;;7.80;3.80;;;18.20;97.00;;;;;;5034131;28;20033;-68
2021/08/18 07:32:22;;;;;;;5.78;3.40;;;18.20;96.90;;;;;;5033783;28;20124;-68
2021/08/18 07:34:48;;;;;;;7.47;3.00;;;18.10;96.80;;;;;;5033674;28;20124;-68
2021/08/18 07:37:13;;;;;;;4.82;3.00;;;18.00;96.50;;;;;;5033754;28;20033;-68
2021/08/18 07:39:39;;;;;;;5.25;2.72;;;18.00;96.80;;;;;;5033440;28;20017;-68
2021/08/18 07:42:05;;;;;;;5.80;3.08;;;17.90;96.50;;;;;;5033509;28;20029;-68
2021/08/18 07:44:31;;;;;;;3.90;2.63;;;17.90;96.60;;;;;;5033140;28;20033;-69
2021/08/18 07:46:56;;;;;;;7.43;3.25;;;17.90;96.70;;;;;;5033314;28;20034;-68
2021/08/18 07:49:22;;;;;;;6.03;2.90;;;18.00;96.30;;;;;;5033775;28;20341;-68
2021/08/18 07:51:47;;;;;;;10.65;3.08;;;17.90;96.40;;;;;;5033833;28;20098;-68
2021/08/18 07:54:13;;;;;;;5.80;2.80;;;18.00;96.20;;;;;;5033241;28;20621;-69
2021/08/18 07:56:38;;;;;;;8.18;2.97;;;17.90;96.20;;;;;;5032556;28;20459;-68
2021/08/18 07:59:04;;;;;;;3.92;2.25;;;18.00;96.30;;;;;;5033111;28;20037;-68
2021/08/18 08:01:30;;;;;;;7.15;3.33;;;18.10;96.20;;;;;;5032952;28;20052;-68
2021/08/18 08:03:55;;;;;;;5.88;2.88;;;18.10;96.10;;;;;;5033366;28;20021;-68
2021/08/18 08:06:21;;;;;;;5.07;3.20;;;18.10;96.10;;;;;;5033102;28;20075;-68
2021/08/18 08:08:46;;;;;;;4.63;2.67;;;18.20;96.20;;;;;;5033034;28;20049;-68
2021/08/18 08:11:12;;;;;;;5.90;3.03;;;18.30;96.10;;;;;;5032788;28;20025;-68
2021/08/18 08:13:37;;;;;;;7.35;3.13;;;18.30;96.00;;;;;;5031519;28;20049;-70
2021/08/18 08:16:03;;;;;;;8.20;2.65;;;18.30;96.10;;;;;;5033096;28;20030;-68
2021/08/18 08:18:29;;;;;;;6.07;3.00;;;18.30;95.90;;;;;;5031350;28;20045;-68
2021/08/18 08:20:54;;;;;;;6.72;2.60;;;18.30;96.00;;;;;;5032555;28;20044;-68
2021/08/18 08:23:20;;;;;;;7.05;3.30;;;18.30;96.00;;;;;;5032505;28;20045;-68
2021/08/18 08:25:45;;;;;;;5.85;3.13;;;18.40;95.70;;;;;;5032491;28;20113;-68
2021/08/18 08:28:14;;;;;;;7.57;2.75;;;18.40;95.40;;;;;;5033066;28;20106;-68
2021/08/18 08:30:39;;;;;;;6.47;2.58;;;18.40;95.20;;;;;;5032609;28;20494;-68
2021/08/18 08:33:05;;;;;;;6.45;2.83;;;18.30;95.10;;;;;;5032635;28;20128;-68
2021/08/18 08:35:30;;;;;;;4.32;2.15;;;18.30;95.20;;;;;;5032507;28;20030;-69
2021/08/18 08:37:56;;;;;;;5.28;2.45;;;18.30;95.10;;;;;;5032344;28;20030;-68
2021/08/18 08:40:22;;;;;;;3.50;2.20;;;18.30;95.20;;;;;;5032834;28;20040;-68
2021/08/18 08:42:48;;;;;;;3.90;1.92;;;18.30;95.00;;;;;;5032036;28;20479;-68
2021/08/18 08:45:14;;;;;;;4.68;2.15;;;18.40;95.00;;;;;;5032134;28;20045;-68
2021/08/18 08:47:40;;;;;;;6.88;2.25;;;18.50;94.90;;;;;;5031971;28;20153;-68
2021/08/18 08:50:09;;;;;;;5.93;2.00;;;18.50;94.90;;;;;;5031084;28;20072;-68
2021/08/18 08:52:35;;;;;;;3.83;1.90;;;18.40;94.90;;;;;;5031963;28;20055;-68
2021/08/18 08:55:02;;;;;;;3.42;2.28;;;18.40;95.20;;;;;;5032435;28;20100;-69
2021/08/18 08:57:27;;;;;;;6.78;2.63;;;18.40;95.30;;;;;;5032400;28;20113;-69
2021/08/18 08:59:53;;;;;;;7.28;2.63;;;18.40;95.70;;;;;;5031951;28;20175;-69
2021/08/18 09:02:21;;;;;;;6.93;2.42;;;18.50;96.00;;;;;;5030969;28;20030;-70
2021/08/18 09:04:48;;;;;;;3.58;2.42;;;18.40;96.00;;;;;;5035734;28;20091;-69
2021/08/18 09:07:16;;;;;;;4.75;2.63;;;18.30;96.00;;;;;;5047991;28;20033;-70
2021/08/18 09:09:50;;;;;;;4.57;2.58;;;18.30;96.60;;;;;;5031925;28;20443;-71
2021/08/18 09:12:18;;;;;;;3.47;2.33;;;18.30;96.40;;;;;;5031959;28;20025;-70
2021/08/18 09:14:44;;;;;;;5.32;2.75;;;18.20;95.90;;;;;;5031835;28;20025;-69
2021/08/18 09:17:31;;;;;;;7.97;2.55;;;18.20;96.00;;;;;;5031741;28;20517;-68
2021/08/18 09:20:06;;;;;;;4.97;2.30;;;18.30;96.00;;;;;;5046939;28;20440;-68
2021/08/18 09:22:36;;;;;;;4.88;2.42;;;18.30;95.80;;;;;;5031661;28;20086;-69
2021/08/18 09:25:23;;;;;;;7.15;3.05;;;18.30;95.50;;;;;;5047422;28;20375;-69
2021/08/18 09:27:52;;;;;;;4.28;2.50;;;18.40;95.10;;;;;;5031487;28;20112;-68
2021/08/18 09:30:22;;;;;;;2.80;1.73;;;18.40;95.10;;;;;;5031298;28;20377;-71
2021/08/18 09:32:48;;;;;;;5.47;2.10;;;18.50;95.00;;;;;;5031524;28;20368;-69
2021/08/18 09:35:17;;;;;;;7.35;2.03;;;18.50;95.00;;;;;;5031434;28;20045;-69
2021/08/18 09:37:53;;;;;;;6.03;2.10;;;18.60;95.00;;;;;;5031170;28;20645;-70
2021/08/18 09:40:41;;;;;;;5.03;2.55;;;18.60;94.90;;;;;;5047086;28;20030;-70
2021/08/18 09:43:13;;;;;;;4.53;2.15;;;18.80;94.70;;;;;;5031515;28;20037;-70
2021/08/18 09:45:43;;;;;;;5.43;2.58;;;18.80;94.30;;;;;;5031378;28;20049;-70
2021/08/18 09:48:12;;;;;;;4.38;2.53;;;18.70;94.50;;;;;;5031048;28;20041;-69
2021/08/18 09:50:45;;;;;;;4.05;2.60;;;18.70;94.90;;;;;;5046739;28;20022;-70
2021/08/18 09:53:17;;;;;;;2.88;1.88;;;18.70;94.70;;;;;;5030961;28;20029;-70
2021/08/18 09:55:55;;;;;;;4.78;2.63;;;18.80;94.60;;;;;;5030960;28;20017;-70
2021/08/18 09:58:26;;;;;;;6.40;2.55;;;18.70;94.70;;;;;;5031478;28;20051;-70
2021/08/18 10:00:54;;;;;;;4.97;2.95;;;18.70;95.00;;;;;;5030912;28;20033;-70
2021/08/18 10:03:21;;;;;;;;;;;18.80;94.60;;;;;;5031590;28;20033;-70
2021/08/18 10:05:51;;;;;;;6.28;2.45;;;18.90;94.70;;;;;;5031068;28;20004;-70
2021/08/18 10:08:18;;;;;;;8.30;2.90;;;19.00;94.60;;;;;;5030607;28;20156;-69
2021/08/18 10:10:44;;;;;;;5.40;2.30;;;19.10;94.60;;;;;;5030763;28;20025;-69
2021/08/18 10:13:11;;;;;;;4.20;2.53;;;19.10;94.10;;;;;;5031236;28;20532;-69
2021/08/18 10:15:37;;;;;;;4.93;2.28;;;19.10;93.80;;;;;;5030828;28;20040;-69
2021/08/18 10:18:07;;;;;;;3.75;2.38;;;19.30;94.00;;;;;;5030605;28;20090;-69
2021/08/18 10:20:34;;;;;;;3.33;2.25;;;19.50;93.90;;;;;;5030210;28;20072;-69
2021/08/18 10:23:10;;;;;;;4.15;2.03;;;19.70;93.80;;;;;;5030237;28;20178;-70
2021/08/18 10:25:37;;;;;;;6.13;1.95;;;19.80;93.70;;;;;;5030649;28;20087;-70
2021/08/18 10:28:07;;;;;;;6.33;2.27;;;19.70;93.20;;;;;;5031153;28;20025;-70
2021/08/18 10:30:47;;;;;;;3.72;2.30;;;19.80;93.30;;;;;;5046377;28;20029;-70
2021/08/18 10:33:50;;;;;;;13.38;2.78;;;19.60;93.20;;;;;;5030449;28;20090;-69
2021/08/18 10:36:42;;;;;;;16.55;3.58;;;19.60;93.40;;;;;;5030572;28;20355;-69
2021/08/18 10:39:19;;;;;;;4.20;2.13;;;19.70;93.40;;;;;;5018988;28;20122;-68
2021/08/18 10:42:08;;;;;;;5.88;1.95;;;19.90;93.30;;;;;;5021264;28;20072;-71
2021/08/18 10:44:37;;;;;;;3.42;1.90;;;19.80;92.70;;;;;;5029446;28;20049;-70
2021/08/18 10:47:26;;;;;;;3.83;2.03;;;19.90;92.90;;;;;;5030578;28;20038;-70
2021/08/18 10:49:53;;;;;;;3.95;1.90;;;20.00;92.90;;;;;;5029350;28;20206;-70
2021/08/18 10:52:42;;;;;;;3.70;1.83;;;20.00;92.60;;;;;;5031095;28;20034;-71
2021/08/18 10:55:09;;;;;;;7.97;1.95;;;19.80;92.30;;;;;;5028809;28;20357;-69
2021/08/18 10:57:48;;;;;;;3.50;1.95;;;19.70;92.40;;;;;;5030030;28;20126;-71
2021/08/18 11:00:15;;;;;;;10.63;5.68;;;19.80;92.40;;;;;;5030077;28;20046;-71
2021/08/18 11:02:57;;;;;;;3.45;2.00;;;19.80;92.40;;;;;;5029994;28;20088;-71
2021/08/18 11:05:46;;;;;;;2.97;1.45;;;19.90;92.50;;;;;;5028971;28;20455;-72
2021/08/18 11:08:15;;;;;;;3.42;1.52;;;19.90;92.40;;;;;;5030334;28;20155;-72
2021/08/18 11:10:50;;;;;;;2.15;1.30;;;19.90;92.50;;;;;;5030085;28;20382;-69
2021/08/18 11:13:16;;;;;;;1.90;1.67;;;19.80;92.50;;;;;;5030537;28;20513;-70
2021/08/18 11:15:42;;;;;;;2.15;1.50;;;19.70;92.40;;;;;;5028895;28;20061;-73
2021/08/18 11:18:09;;;;;;;3.88;1.60;;;19.70;92.70;;;;;;5029961;28;20053;-73
2021/08/18 11:20:34;;;;;;;3.42;1.77;;;19.80;92.80;;;;;;5030288;28;20133;-74
2021/08/18 11:23:08;;;;;;;3.60;1.50;;;19.80;92.70;;;;;;5030009;28;20128;-73
2021/08/18 11:25:45;;;;;;;2.83;1.30;;;19.80;92.30;;;;;;5029831;28;20021;-73
2021/08/18 11:28:25;;;;;;;4.40;1.08;;;19.80;92.10;;;;;;5030385;28;20024;-74
2021/08/18 11:31:08;;;;;;;2.42;1.40;;;19.90;92.20;;;;;;5030261;28;20029;-74
2021/08/18 11:33:35;;;;;;;2.58;1.52;;;20.00;92.20;;;;;;5032419;28;20368;-72
2021/08/18 11:36:01;;;;;;;2.28;1.52;;;19.90;91.80;;;;;;5033637;28;20037;-74
2021/08/18 11:38:28;;;;;;;6.93;1.60;;;19.80;91.90;;;;;;5033799;28;20456;-73
2021/08/18 11:40:54;;;;;;;2.35;1.30;;;19.70;92.20;;;;;;5033650;28;20029;-73
2021/08/18 11:43:42;;;;;;;4.00;1.38;;;19.60;92.40;;;;;;5033911;28;20017;-74
2021/08/18 11:46:08;;;;;;;1.58;1.30;;;19.60;92.60;;;;;;5033858;28;20041;-73
2021/08/18 11:48:34;;;;;;;3.45;1.42;;;19.60;92.70;;;;;;5033484;28;20490;-74
2021/08/18 11:51:01;;;;;;;3.25;1.70;;;19.70;92.80;;;;;;5033452;28;20367;-76
2021/08/18 11:53:27;;;;;;;1.85;1.42;;;19.90;92.70;;;;;;5033284;28;20033;-73
2021/08/18 11:56:04;;;;;;;3.85;1.23;;;19.80;92.50;;;;;;5033259;28;20091;-74
2021/08/18 11:58:33;;;;;;;2.95;1.63;;;20.00;92.50;;;;;;5033597;28;20033;-74
2021/08/18 12:01:02;;;;;;;;;;;20.30;92.40;;;;;;5034114;28;20060;-74
2021/08/18 12:03:28;;;;;;;1.85;1.00;;;20.40;92.10;;;;;;5033037;28;20339;-74
2021/08/18 12:06:03;;;;;;;2.30;1.20;;;20.20;92.10;;;;;;5033161;28;20041;-74
2021/08/18 12:08:36;;;;;;;4.72;1.65;;;20.30;92.10;;;;;;5033280;28;20375;-73
2021/08/18 12:11:03;;;;;;;2.05;1.02;;;20.30;92.00;;;;;;5033399;28;20030;-73
2021/08/18 12:13:42;;;;;;;3.25;1.08;;;20.30;91.80;;;;;;5033326;28;20029;-74
2021/08/18 12:16:28;;;;;;;2.95;1.00;;;20.40;91.70;;;;;;5033035;28;20057;-74
2021/08/18 12:19:13;;;;;;;2.67;1.10;;;20.40;91.60;;;;;;5032098;28;20103;-74
2021/08/18 12:21:39;;;;;;;1.60;0.82;;;20.40;91.60;;;;;;5033241;28;20048;-74
2021/08/18 12:24:10;;;;;;;6.88;1.02;;;20.50;91.60;;;;;;5048158;28;20478;-74
2021/08/18 12:26:39;;;;;;;1.60;1.20;;;20.60;91.30;;;;;;5032893;28;20037;-75
2021/08/18 12:29:07;;;;;;;1.40;1.23;;;20.60;91.40;;;;;;5032472;28;20477;-73
2021/08/18 12:31:52;;;;;;;;;;;20.50;91.10;;;;;;5048562;28;20107;-74
2021/08/18 12:34:27;;;;;;;3.22;1.75;;;20.40;91.50;;;;;;5033076;28;19901;-73
2021/08/18 12:36:59;;;;;;;2.83;1.20;;;20.50;91.70;;;;;;5047886;28;20069;-75
2021/08/18 12:39:33;;;;;;;1.88;1.23;;;20.50;91.60;;;;;;5032474;28;20029;-75
2021/08/18 12:41:59;;;;;;;3.35;1.42;;;20.50;91.60;;;;;;5032514;28;20034;-74
2021/08/18 12:44:33;;;;;;;4.35;1.20;;;20.50;91.70;;;;;;5032336;28;20059;-75
2021/08/18 12:47:11;;;;;;;3.67;1.42;;;20.40;91.80;;;;;;5035582;28;20455;-74
2021/08/18 12:49:38;;;;;;;6.57;1.35;;;20.40;92.00;;;;;;5053729;28;20021;-75